sensor_id;sensor_type;location;lat;lon;timestamp;P1;durP1;ratioP1;P2;durP2;ratioP2
38111;SDS011;64011;56.312;44.048;2023-10-08T00:01:49;2.75;;;0.93;;
38111;SDS011;64011;56.312;44.048;2023-10-08T00:03:50;5.15;;;1.77;;
38111;SDS011;64011;56.312;44.048;2023-10-08T00:05:52;4.88;;;1.70;;
38111;SDS011;64011;56.312;44.048;2023-10-08T00:07:53;2.45;;;1.20;;
38111;SDS011;64011;56.312;44.048;2023-10-08T00:09:54;3.65;;;1.60;;
38111;SDS011;64011;56.312;44.048;2023-10-08T00:11:55;5.03;;;2.17;;
38111;SDS011;64011;56.312;44.048;2023-10-08T00:13:56;5.15;;;2.33;;
38111;SDS011;64011;56.312;44.048;2023-10-08T00:15:57;5.68;;;2.65;;
38111;SDS011;64011;56.312;44.048;2023-10-08T00:17:59;5.00;;;2.55;;
38111;SDS011;64011;56.312;44.048;2023-10-08T00:20:00;5.45;;;2.30;;
38111;SDS011;64011;56.312;44.048;2023-10-08T00:22:01;6.50;;;2.15;;
38111;SDS011;64011;56.312;44.048;2023-10-08T00:24:02;4.53;;;2.00;;
38111;SDS011;64011;56.312;44.048;2023-10-08T00:26:03;5.15;;;2.22;;
38111;SDS011;64011;56.312;44.048;2023-10-08T00:28:04;6.45;;;2.88;;
38111;SDS011;64011;56.312;44.048;2023-10-08T00:30:06;6.50;;;2.60;;
38111;SDS011;64011;56.312;44.048;2023-10-08T00:32:07;9.32;;;3.53;;
38111;SDS011;64011;56.312;44.048;2023-10-08T00:34:10;8.93;;;3.40;;
38111;SDS011;64011;56.312;44.048;2023-10-08T00:36:11;10.80;;;3.60;;
38111;SDS011;64011;56.312;44.048;2023-10-08T00:38:12;7.95;;;3.55;;
38111;SDS011;64011;56.312;44.048;2023-10-08T00:40:13;7.55;;;3.05;;
38111;SDS011;64011;56.312;44.048;2023-10-08T00:42:14;7.60;;;2.60;;
38111;SDS011;64011;56.312;44.048;2023-10-08T00:44:14;8.65;;;3.38;;
38111;SDS011;64011;56.312;44.048;2023-10-08T00:46:16;12.90;;;3.65;;
38111;SDS011;64011;56.312;44.048;2023-10-08T00:48:18;8.65;;;3.63;;
38111;SDS011;64011;56.312;44.048;2023-10-08T00:50:20;9.75;;;4.00;;
38111;SDS011;64011;56.312;44.048;2023-10-08T00:52:21;9.35;;;4.30;;
38111;SDS011;64011;56.312;44.048;2023-10-08T00:54:22;10.18;;;3.85;;
38111;SDS011;64011;56.312;44.048;2023-10-08T00:56:22;11.15;;;4.57;;
38111;SDS011;64011;56.312;44.048;2023-10-08T00:58:24;7.75;;;3.33;;
38111;SDS011;64011;56.312;44.048;2023-10-08T01:00:25;5.90;;;2.20;;
38111;SDS011;64011;56.312;44.048;2023-10-08T01:02:27;8.98;;;3.13;;
38111;SDS011;64011;56.312;44.048;2023-10-08T01:04:28;5.68;;;1.33;;
38111;SDS011;64011;56.312;44.048;2023-10-08T01:06:30;4.28;;;1.75;;
38111;SDS011;64011;56.312;44.048;2023-10-08T01:08:31;7.30;;;2.03;;
38111;SDS011;64011;56.312;44.048;2023-10-08T01:10:32;3.35;;;1.30;;
38111;SDS011;64011;56.312;44.048;2023-10-08T01:12:33;7.40;;;2.20;;
38111;SDS011;64011;56.312;44.048;2023-10-08T01:14:35;3.80;;;1.40;;
38111;SDS011;64011;56.312;44.048;2023-10-08T01:16:36;2.22;;;1.08;;
38111;SDS011;64011;56.312;44.048;2023-10-08T01:18:37;3.45;;;1.08;;
38111;SDS011;64011;56.312;44.048;2023-10-08T01:20:37;2.25;;;0.57;;
38111;SDS011;64011;56.312;44.048;2023-10-08T01:22:40;3.22;;;0.75;;
38111;SDS011;64011;56.312;44.048;2023-10-08T01:24:40;2.30;;;1.00;;
38111;SDS011;64011;56.312;44.048;2023-10-08T01:26:41;7.05;;;1.10;;
38111;SDS011;64011;56.312;44.048;2023-10-08T01:28:42;2.58;;;1.20;;
38111;SDS011;64011;56.312;44.048;2023-10-08T01:30:43;2.13;;;1.08;;
38111;SDS011;64011;56.312;44.048;2023-10-08T01:32:44;4.25;;;0.98;;
38111;SDS011;64011;56.312;44.048;2023-10-08T01:34:45;4.47;;;1.33;;
38111;SDS011;64011;56.312;44.048;2023-10-08T01:36:47;2.95;;;1.15;;
38111;SDS011;64011;56.312;44.048;2023-10-08T01:38:49;3.20;;;1.20;;
38111;SDS011;64011;56.312;44.048;2023-10-08T01:40:50;2.67;;;1.20;;
38111;SDS011;64011;56.312;44.048;2023-10-08T01:42:51;2.45;;;1.00;;
38111;SDS011;64011;56.312;44.048;2023-10-08T01:44:52;2.70;;;1.25;;
38111;SDS011;64011;56.312;44.048;2023-10-08T01:46:53;1.88;;;1.00;;
38111;SDS011;64011;56.312;44.048;2023-10-08T01:48:53;4.88;;;1.30;;
38111;SDS011;64011;56.312;44.048;2023-10-08T01:50:54;2.58;;;1.17;;
38111;SDS011;64011;56.312;44.048;2023-10-08T01:52:55;3.05;;;1.20;;
38111;SDS011;64011;56.312;44.048;2023-10-08T01:54:58;4.82;;;1.60;;
38111;SDS011;64011;56.312;44.048;2023-10-08T01:56:59;3.53;;;1.60;;
38111;SDS011;64011;56.312;44.048;2023-10-08T01:58:59;5.25;;;1.98;;
38111;SDS011;64011;56.312;44.048;2023-10-08T02:01:00;7.18;;;2.10;;
38111;SDS011;64011;56.312;44.048;2023-10-08T02:03:01;4.68;;;1.95;;
38111;SDS011;64011;56.312;44.048;2023-10-08T02:05:02;6.05;;;2.50;;
38111;SDS011;64011;56.312;44.048;2023-10-08T02:07:04;6.18;;;2.38;;
38111;SDS011;64011;56.312;44.048;2023-10-08T02:09:05;6.50;;;2.30;;
38111;SDS011;64011;56.312;44.048;2023-10-08T02:11:07;8.40;;;2.72;;
38111;SDS011;64011;56.312;44.048;2023-10-08T02:13:08;8.52;;;2.85;;
38111;SDS011;64011;56.312;44.048;2023-10-08T02:15:13;8.48;;;2.65;;
38111;SDS011;64011;56.312;44.048;2023-10-08T02:17:15;7.07;;;2.40;;
38111;SDS011;64011;56.312;44.048;2023-10-08T02:19:16;8.48;;;2.72;;
38111;SDS011;64011;56.312;44.048;2023-10-08T02:21:17;6.18;;;2.35;;
38111;SDS011;64011;56.312;44.048;2023-10-08T02:23:18;10.07;;;2.80;;
38111;SDS011;64011;56.312;44.048;2023-10-08T02:25:18;8.10;;;2.72;;
38111;SDS011;64011;56.312;44.048;2023-10-08T02:27:21;10.20;;;3.08;;
38111;SDS011;64011;56.312;44.048;2023-10-08T02:29:23;10.65;;;2.88;;
38111;SDS011;64011;56.312;44.048;2023-10-08T02:31:25;9.65;;;2.95;;
38111;SDS011;64011;56.312;44.048;2023-10-08T02:33:26;11.38;;;3.47;;
38111;SDS011;64011;56.312;44.048;2023-10-08T02:35:27;10.02;;;2.80;;
38111;SDS011;64011;56.312;44.048;2023-10-08T02:37:28;14.32;;;3.00;;
38111;SDS011;64011;56.312;44.048;2023-10-08T02:39:29;10.63;;;3.15;;
38111;SDS011;64011;56.312;44.048;2023-10-08T02:41:31;9.75;;;3.20;;
38111;SDS011;64011;56.312;44.048;2023-10-08T02:43:34;8.43;;;2.65;;
38111;SDS011;64011;56.312;44.048;2023-10-08T02:45:35;10.40;;;3.30;;
38111;SDS011;64011;56.312;44.048;2023-10-08T02:47:35;14.25;;;3.53;;
38111;SDS011;64011;56.312;44.048;2023-10-08T02:49:36;6.72;;;2.25;;
38111;SDS011;64011;56.312;44.048;2023-10-08T02:51:38;9.57;;;2.45;;
38111;SDS011;64011;56.312;44.048;2023-10-08T02:53:39;7.07;;;2.00;;
38111;SDS011;64011;56.312;44.048;2023-10-08T02:55:41;6.30;;;1.80;;
38111;SDS011;64011;56.312;44.048;2023-10-08T02:57:41;7.75;;;1.90;;
38111;SDS011;64011;56.312;44.048;2023-10-08T02:59:44;7.05;;;1.55;;
38111;SDS011;64011;56.312;44.048;2023-10-08T03:01:45;8.00;;;1.85;;
38111;SDS011;64011;56.312;44.048;2023-10-08T03:03:45;7.18;;;1.77;;
38111;SDS011;64011;56.312;44.048;2023-10-08T03:05:47;1.58;;;0.70;;
38111;SDS011;64011;56.312;44.048;2023-10-08T03:07:49;2.30;;;1.10;;
38111;SDS011;64011;56.312;44.048;2023-10-08T03:09:50;3.28;;;1.00;;
38111;SDS011;64011;56.312;44.048;2023-10-08T03:11:52;4.60;;;0.95;;
38111;SDS011;64011;56.312;44.048;2023-10-08T03:13:53;4.22;;;1.00;;
38111;SDS011;64011;56.312;44.048;2023-10-08T03:15:55;2.03;;;0.80;;
38111;SDS011;64011;56.312;44.048;2023-10-08T03:17:56;4.07;;;1.20;;
38111;SDS011;64011;56.312;44.048;2023-10-08T03:20:00;5.13;;;1.20;;
38111;SDS011;64011;56.312;44.048;2023-10-08T03:22:01;4.75;;;1.40;;
38111;SDS011;64011;56.312;44.048;2023-10-08T03:24:01;7.03;;;1.77;;
38111;SDS011;64011;56.312;44.048;2023-10-08T03:26:03;9.30;;;1.55;;
38111;SDS011;64011;56.312;44.048;2023-10-08T03:28:04;5.10;;;1.35;;
38111;SDS011;64011;56.312;44.048;2023-10-08T03:30:06;6.30;;;1.60;;
38111;SDS011;64011;56.312;44.048;2023-10-08T03:32:10;4.55;;;1.42;;
38111;SDS011;64011;56.312;44.048;2023-10-08T03:34:12;4.57;;;1.30;;
38111;SDS011;64011;56.312;44.048;2023-10-08T03:36:13;6.97;;;1.70;;
38111;SDS011;64011;56.312;44.048;2023-10-08T03:38:13;4.18;;;1.00;;
38111;SDS011;64011;56.312;44.048;2023-10-08T03:40:14;4.88;;;1.10;;
38111;SDS011;64011;56.312;44.048;2023-10-08T03:42:18;2.88;;;0.90;;
38111;SDS011;64011;56.312;44.048;2023-10-08T03:44:19;2.85;;;1.00;;
38111;SDS011;64011;56.312;44.048;2023-10-08T03:46:20;2.03;;;0.68;;
38111;SDS011;64011;56.312;44.048;2023-10-08T03:48:23;3.10;;;0.93;;
38111;SDS011;64011;56.312;44.048;2023-10-08T03:50:23;4.57;;;0.98;;
38111;SDS011;64011;56.312;44.048;2023-10-08T03:52:24;1.23;;;0.63;;
38111;SDS011;64011;56.312;44.048;2023-10-08T03:54:25;3.08;;;0.68;;
38111;SDS011;64011;56.312;44.048;2023-10-08T03:56:26;1.15;;;0.50;;
38111;SDS011;64011;56.312;44.048;2023-10-08T03:58:27;3.15;;;0.60;;
38111;SDS011;64011;56.312;44.048;2023-10-08T04:00:28;2.92;;;0.63;;
38111;SDS011;64011;56.312;44.048;2023-10-08T04:02:29;3.05;;;0.77;;
38111;SDS011;64011;56.312;44.048;2023-10-08T04:04:31;3.47;;;1.10;;
38111;SDS011;64011;56.312;44.048;2023-10-08T04:06:32;3.15;;;1.20;;
38111;SDS011;64011;56.312;44.048;2023-10-08T04:08:33;5.22;;;1.30;;
38111;SDS011;64011;56.312;44.048;2023-10-08T04:10:34;6.60;;;1.83;;
38111;SDS011;64011;56.312;44.048;2023-10-08T04:12:35;8.20;;;1.90;;
38111;SDS011;64011;56.312;44.048;2023-10-08T04:14:36;7.15;;;2.00;;
38111;SDS011;64011;56.312;44.048;2023-10-08T04:16:37;4.82;;;1.17;;
38111;SDS011;64011;56.312;44.048;2023-10-08T04:18:38;3.28;;;1.20;;
38111;SDS011;64011;56.312;44.048;2023-10-08T04:20:40;5.88;;;1.52;;
38111;SDS011;64011;56.312;44.048;2023-10-08T04:22:41;7.55;;;2.00;;
38111;SDS011;64011;56.312;44.048;2023-10-08T04:24:42;4.07;;;1.50;;
38111;SDS011;64011;56.312;44.048;2023-10-08T04:26:43;4.70;;;1.40;;
38111;SDS011;64011;56.312;44.048;2023-10-08T04:28:44;5.55;;;1.63;;
38111;SDS011;64011;56.312;44.048;2023-10-08T04:30:45;7.68;;;2.10;;
38111;SDS011;64011;56.312;44.048;2023-10-08T04:32:45;5.90;;;1.58;;
38111;SDS011;64011;56.312;44.048;2023-10-08T04:34:46;5.28;;;1.50;;
38111;SDS011;64011;56.312;44.048;2023-10-08T04:36:49;6.53;;;1.50;;
38111;SDS011;64011;56.312;44.048;2023-10-08T04:38:50;3.90;;;1.00;;
38111;SDS011;64011;56.312;44.048;2023-10-08T04:40:50;5.38;;;1.77;;
38111;SDS011;64011;56.312;44.048;2023-10-08T04:42:52;5.25;;;1.00;;
38111;SDS011;64011;56.312;44.048;2023-10-08T04:44:52;4.43;;;1.52;;
38111;SDS011;64011;56.312;44.048;2023-10-08T04:46:54;5.95;;;1.80;;
38111;SDS011;64011;56.312;44.048;2023-10-08T04:48:54;3.40;;;1.20;;
38111;SDS011;64011;56.312;44.048;2023-10-08T04:50:55;4.80;;;1.33;;
38111;SDS011;64011;56.312;44.048;2023-10-08T04:52:57;4.57;;;1.38;;
38111;SDS011;64011;56.312;44.048;2023-10-08T04:54:59;4.32;;;1.30;;
38111;SDS011;64011;56.312;44.048;2023-10-08T04:57:00;5.85;;;1.73;;
38111;SDS011;64011;56.312;44.048;2023-10-08T04:59:02;5.85;;;1.30;;
38111;SDS011;64011;56.312;44.048;2023-10-08T05:01:02;2.85;;;1.08;;
38111;SDS011;64011;56.312;44.048;2023-10-08T05:03:04;3.95;;;1.20;;
38111;SDS011;64011;56.312;44.048;2023-10-08T05:05:05;2.83;;;1.10;;
38111;SDS011;64011;56.312;44.048;2023-10-08T05:07:06;4.45;;;0.90;;
38111;SDS011;64011;56.312;44.048;2023-10-08T05:09:10;3.72;;;1.30;;
38111;SDS011;64011;56.312;44.048;2023-10-08T05:11:11;6.43;;;1.27;;
38111;SDS011;64011;56.312;44.048;2023-10-08T05:13:12;2.63;;;0.77;;
38111;SDS011;64011;56.312;44.048;2023-10-08T05:15:13;3.20;;;0.90;;
38111;SDS011;64011;56.312;44.048;2023-10-08T05:17:14;1.95;;;0.73;;
38111;SDS011;64011;56.312;44.048;2023-10-08T05:19:15;4.38;;;0.90;;
38111;SDS011;64011;56.312;44.048;2023-10-08T05:21:16;4.50;;;0.82;;
38111;SDS011;64011;56.312;44.048;2023-10-08T05:23:17;3.67;;;0.98;;
38111;SDS011;64011;56.312;44.048;2023-10-08T05:25:20;4.35;;;0.90;;
38111;SDS011;64011;56.312;44.048;2023-10-08T05:27:21;4.82;;;0.82;;
38111;SDS011;64011;56.312;44.048;2023-10-08T05:29:21;2.95;;;0.73;;
38111;SDS011;64011;56.312;44.048;2023-10-08T05:31:22;3.83;;;0.80;;
38111;SDS011;64011;56.312;44.048;2023-10-08T05:33:23;6.35;;;0.93;;
38111;SDS011;64011;56.312;44.048;2023-10-08T05:35:24;3.10;;;0.55;;
38111;SDS011;64011;56.312;44.048;2023-10-08T05:37:25;3.65;;;0.98;;
38111;SDS011;64011;56.312;44.048;2023-10-08T05:39:26;2.67;;;1.13;;
38111;SDS011;64011;56.312;44.048;2023-10-08T05:41:28;3.35;;;0.80;;
38111;SDS011;64011;56.312;44.048;2023-10-08T05:43:29;2.15;;;0.80;;
38111;SDS011;64011;56.312;44.048;2023-10-08T05:45:31;5.07;;;1.00;;
38111;SDS011;64011;56.312;44.048;2023-10-08T05:47:32;0.73;;;0.40;;
38111;SDS011;64011;56.312;44.048;2023-10-08T05:49:33;3.80;;;0.75;;
38111;SDS011;64011;56.312;44.048;2023-10-08T05:51:35;2.83;;;0.60;;
38111;SDS011;64011;56.312;44.048;2023-10-08T05:53:36;3.13;;;0.77;;
38111;SDS011;64011;56.312;44.048;2023-10-08T05:55:37;4.88;;;0.60;;
38111;SDS011;64011;56.312;44.048;2023-10-08T05:57:40;1.02;;;0.55;;
38111;SDS011;64011;56.312;44.048;2023-10-08T05:59:41;3.53;;;0.85;;
38111;SDS011;64011;56.312;44.048;2023-10-08T06:01:43;4.13;;;0.80;;
38111;SDS011;64011;56.312;44.048;2023-10-08T06:03:44;2.60;;;0.55;;
38111;SDS011;64011;56.312;44.048;2023-10-08T06:05:45;1.77;;;0.52;;
38111;SDS011;64011;56.312;44.048;2023-10-08T06:07:46;5.53;;;0.90;;
38111;SDS011;64011;56.312;44.048;2023-10-08T06:09:48;2.13;;;0.60;;
38111;SDS011;64011;56.312;44.048;2023-10-08T06:11:49;1.25;;;0.50;;
38111;SDS011;64011;56.312;44.048;2023-10-08T06:13:51;2.67;;;0.90;;
38111;SDS011;64011;56.312;44.048;2023-10-08T06:15:52;8.18;;;1.02;;
38111;SDS011;64011;56.312;44.048;2023-10-08T06:17:53;4.18;;;0.63;;
38111;SDS011;64011;56.312;44.048;2023-10-08T06:19:53;1.52;;;0.60;;
38111;SDS011;64011;56.312;44.048;2023-10-08T06:21:54;2.67;;;0.73;;
38111;SDS011;64011;56.312;44.048;2023-10-08T06:23:55;2.70;;;0.80;;
38111;SDS011;64011;56.312;44.048;2023-10-08T06:25:56;2.30;;;0.90;;
38111;SDS011;64011;56.312;44.048;2023-10-08T06:27:57;1.77;;;0.75;;
38111;SDS011;64011;56.312;44.048;2023-10-08T06:30:00;3.58;;;0.90;;
38111;SDS011;64011;56.312;44.048;2023-10-08T06:32:01;4.65;;;1.20;;
38111;SDS011;64011;56.312;44.048;2023-10-08T06:34:02;4.90;;;1.27;;
38111;SDS011;64011;56.312;44.048;2023-10-08T06:36:03;5.20;;;1.30;;
38111;SDS011;64011;56.312;44.048;2023-10-08T06:38:05;4.57;;;1.20;;
38111;SDS011;64011;56.312;44.048;2023-10-08T06:40:06;5.72;;;1.02;;
38111;SDS011;64011;56.312;44.048;2023-10-08T06:42:08;4.35;;;0.98;;
38111;SDS011;64011;56.312;44.048;2023-10-08T06:44:09;7.57;;;1.33;;
38111;SDS011;64011;56.312;44.048;2023-10-08T06:46:11;1.83;;;0.70;;
38111;SDS011;64011;56.312;44.048;2023-10-08T06:48:13;3.30;;;0.77;;
38111;SDS011;64011;56.312;44.048;2023-10-08T06:50:15;2.30;;;0.55;;
38111;SDS011;64011;56.312;44.048;2023-10-08T06:52:16;4.05;;;1.10;;
38111;SDS011;64011;56.312;44.048;2023-10-08T06:54:16;5.20;;;1.33;;
38111;SDS011;64011;56.312;44.048;2023-10-08T06:56:17;2.05;;;0.43;;
38111;SDS011;64011;56.312;44.048;2023-10-08T06:58:19;4.20;;;1.65;;
38111;SDS011;64011;56.312;44.048;2023-10-08T07:00:19;3.53;;;0.90;;
38111;SDS011;64011;56.312;44.048;2023-10-08T07:02:22;6.75;;;1.92;;
38111;SDS011;64011;56.312;44.048;2023-10-08T07:04:22;3.65;;;1.08;;
38111;SDS011;64011;56.312;44.048;2023-10-08T07:06:23;4.93;;;1.40;;
38111;SDS011;64011;56.312;44.048;2023-10-08T07:08:24;7.18;;;3.90;;
38111;SDS011;64011;56.312;44.048;2023-10-08T07:10:26;12.25;;;5.57;;
38111;SDS011;64011;56.312;44.048;2023-10-08T07:12:26;12.48;;;6.32;;
38111;SDS011;64011;56.312;44.048;2023-10-08T07:14:28;8.55;;;2.13;;
38111;SDS011;64011;56.312;44.048;2023-10-08T07:16:29;5.03;;;1.25;;
38111;SDS011;64011;56.312;44.048;2023-10-08T07:18:31;8.60;;;2.53;;
38111;SDS011;64011;56.312;44.048;2023-10-08T07:20:32;8.05;;;2.42;;
38111;SDS011;64011;56.312;44.048;2023-10-08T07:22:33;9.27;;;2.90;;
38111;SDS011;64011;56.312;44.048;2023-10-08T07:24:34;7.90;;;2.40;;
38111;SDS011;64011;56.312;44.048;2023-10-08T07:26:35;5.82;;;1.95;;
38111;SDS011;64011;56.312;44.048;2023-10-08T07:28:35;5.28;;;1.70;;
38111;SDS011;64011;56.312;44.048;2023-10-08T07:30:37;5.40;;;1.38;;
38111;SDS011;64011;56.312;44.048;2023-10-08T07:32:38;4.78;;;1.20;;
38111;SDS011;64011;56.312;44.048;2023-10-08T07:34:40;8.00;;;1.55;;
38111;SDS011;64011;56.312;44.048;2023-10-08T07:36:41;9.02;;;1.40;;
38111;SDS011;64011;56.312;44.048;2023-10-08T07:38:42;9.63;;;1.48;;
38111;SDS011;64011;56.312;44.048;2023-10-08T07:40:43;6.35;;;1.10;;
38111;SDS011;64011;56.312;44.048;2023-10-08T07:42:44;7.28;;;1.42;;
38111;SDS011;64011;56.312;44.048;2023-10-08T07:44:45;4.10;;;1.13;;
38111;SDS011;64011;56.312;44.048;2023-10-08T07:46:46;5.40;;;0.80;;
38111;SDS011;64011;56.312;44.048;2023-10-08T07:48:47;4.18;;;1.00;;
38111;SDS011;64011;56.312;44.048;2023-10-08T07:50:49;4.80;;;1.40;;
38111;SDS011;64011;56.312;44.048;2023-10-08T07:52:50;5.45;;;1.05;;
38111;SDS011;64011;56.312;44.048;2023-10-08T07:54:51;2.25;;;0.75;;
38111;SDS011;64011;56.312;44.048;2023-10-08T07:56:53;4.68;;;0.98;;
38111;SDS011;64011;56.312;44.048;2023-10-08T07:58:54;6.72;;;1.60;;
38111;SDS011;64011;56.312;44.048;2023-10-08T08:00:54;2.30;;;0.85;;
38111;SDS011;64011;56.312;44.048;2023-10-08T08:02:55;2.72;;;0.80;;
38111;SDS011;64011;56.312;44.048;2023-10-08T08:04:56;3.97;;;0.88;;
38111;SDS011;64011;56.312;44.048;2023-10-08T08:06:59;1.90;;;0.70;;
38111;SDS011;64011;56.312;44.048;2023-10-08T08:08:59;0.75;;;0.52;;
38111;SDS011;64011;56.312;44.048;2023-10-08T08:11:00;4.95;;;1.20;;
38111;SDS011;64011;56.312;44.048;2023-10-08T08:13:01;4.90;;;1.42;;
38111;SDS011;64011;56.312;44.048;2023-10-08T08:15:02;3.28;;;0.77;;
38111;SDS011;64011;56.312;44.048;2023-10-08T08:17:05;1.77;;;0.80;;
38111;SDS011;64011;56.312;44.048;2023-10-08T08:19:06;2.95;;;1.00;;
38111;SDS011;64011;56.312;44.048;2023-10-08T08:21:09;5.80;;;0.90;;
38111;SDS011;64011;56.312;44.048;2023-10-08T08:23:12;5.07;;;0.85;;
38111;SDS011;64011;56.312;44.048;2023-10-08T08:25:13;4.30;;;1.30;;
38111;SDS011;64011;56.312;44.048;2023-10-08T08:27:14;7.38;;;1.42;;
38111;SDS011;64011;56.312;44.048;2023-10-08T08:29:14;5.53;;;1.20;;
38111;SDS011;64011;56.312;44.048;2023-10-08T08:31:15;5.72;;;1.25;;
38111;SDS011;64011;56.312;44.048;2023-10-08T08:33:16;3.00;;;1.40;;
38111;SDS011;64011;56.312;44.048;2023-10-08T08:35:17;3.38;;;1.15;;
38111;SDS011;64011;56.312;44.048;2023-10-08T08:37:18;2.28;;;1.10;;
38111;SDS011;64011;56.312;44.048;2023-10-08T08:39:21;3.80;;;1.00;;
38111;SDS011;64011;56.312;44.048;2023-10-08T08:41:22;1.88;;;0.85;;
38111;SDS011;64011;56.312;44.048;2023-10-08T08:43:23;4.18;;;0.68;;
38111;SDS011;64011;56.312;44.048;2023-10-08T08:45:24;2.92;;;1.10;;
38111;SDS011;64011;56.312;44.048;2023-10-08T08:47:25;4.65;;;1.00;;
38111;SDS011;64011;56.312;44.048;2023-10-08T08:49:26;2.72;;;0.80;;
38111;SDS011;64011;56.312;44.048;2023-10-08T08:51:27;3.10;;;1.10;;
38111;SDS011;64011;56.312;44.048;2023-10-08T08:53:28;3.65;;;0.90;;
38111;SDS011;64011;56.312;44.048;2023-10-08T08:55:31;2.38;;;1.02;;
38111;SDS011;64011;56.312;44.048;2023-10-08T08:57:32;3.38;;;1.10;;
38111;SDS011;64011;56.312;44.048;2023-10-08T08:59:33;2.25;;;1.17;;
38111;SDS011;64011;56.312;44.048;2023-10-08T09:01:35;2.92;;;0.95;;
38111;SDS011;64011;56.312;44.048;2023-10-08T09:03:36;3.13;;;1.17;;
38111;SDS011;64011;56.312;44.048;2023-10-08T09:05:37;1.77;;;0.80;;
38111;SDS011;64011;56.312;44.048;2023-10-08T09:07:38;1.50;;;0.70;;
38111;SDS011;64011;56.312;44.048;2023-10-08T09:09:54;2.65;;;0.77;;
38111;SDS011;64011;56.312;44.048;2023-10-08T09:11:58;2.88;;;0.88;;
38111;SDS011;64011;56.312;44.048;2023-10-08T09:14:01;2.42;;;0.80;;
38111;SDS011;64011;56.312;44.048;2023-10-08T09:16:03;2.90;;;0.68;;
38111;SDS011;64011;56.312;44.048;2023-10-08T09:18:07;0.40;;;0.30;;
38111;SDS011;64011;56.312;44.048;2023-10-08T09:20:09;2.17;;;0.50;;
38111;SDS011;64011;56.312;44.048;2023-10-08T09:22:10;2.05;;;0.60;;
38111;SDS011;64011;56.312;44.048;2023-10-08T09:24:12;1.85;;;0.80;;
38111;SDS011;64011;56.312;44.048;2023-10-08T09:26:13;5.28;;;0.88;;
38111;SDS011;64011;56.312;44.048;2023-10-08T09:28:15;4.35;;;1.00;;
38111;SDS011;64011;56.312;44.048;2023-10-08T09:30:16;1.40;;;0.57;;
38111;SDS011;64011;56.312;44.048;2023-10-08T09:32:17;1.77;;;0.70;;
38111;SDS011;64011;56.312;44.048;2023-10-08T09:34:17;1.48;;;0.60;;
38111;SDS011;64011;56.312;44.048;2023-10-08T09:36:18;1.10;;;0.70;;
38111;SDS011;64011;56.312;44.048;2023-10-08T09:38:19;2.97;;;0.80;;
38111;SDS011;64011;56.312;44.048;2023-10-08T09:40:20;2.05;;;0.70;;
38111;SDS011;64011;56.312;44.048;2023-10-08T09:42:21;2.15;;;0.90;;
38111;SDS011;64011;56.312;44.048;2023-10-08T09:44:24;0.75;;;0.50;;
38111;SDS011;64011;56.312;44.048;2023-10-08T09:46:28;1.77;;;0.70;;
38111;SDS011;64011;56.312;44.048;2023-10-08T09:48:30;1.35;;;0.68;;
38111;SDS011;64011;56.312;44.048;2023-10-08T09:50:32;1.70;;;0.77;;
38111;SDS011;64011;56.312;44.048;2023-10-08T09:52:37;3.72;;;1.25;;
38111;SDS011;64011;56.312;44.048;2023-10-08T09:54:43;2.42;;;0.70;;
38111;SDS011;64011;56.312;44.048;2023-10-08T09:56:44;1.65;;;0.60;;
38111;SDS011;64011;56.312;44.048;2023-10-08T09:58:46;2.72;;;0.70;;
38111;SDS011;64011;56.312;44.048;2023-10-08T10:00:48;1.85;;;0.57;;
38111;SDS011;64011;56.312;44.048;2023-10-08T10:02:50;0.55;;;0.40;;
38111;SDS011;64011;56.312;44.048;2023-10-08T10:04:51;2.65;;;0.57;;
38111;SDS011;64011;56.312;44.048;2023-10-08T10:06:52;1.25;;;0.40;;
38111;SDS011;64011;56.312;44.048;2023-10-08T10:08:53;1.83;;;0.70;;
38111;SDS011;64011;56.312;44.048;2023-10-08T10:10:57;0.95;;;0.52;;
38111;SDS011;64011;56.312;44.048;2023-10-08T10:12:58;2.17;;;0.93;;
38111;SDS011;64011;56.312;44.048;2023-10-08T10:14:59;1.52;;;0.85;;
38111;SDS011;64011;56.312;44.048;2023-10-08T10:17:12;7.75;;;2.78;;
38111;SDS011;64011;56.312;44.048;2023-10-08T10:19:16;0.73;;;0.47;;
38111;SDS011;64011;56.312;44.048;2023-10-08T10:21:28;0.68;;;0.50;;
38111;SDS011;64011;56.312;44.048;2023-10-08T10:23:37;1.48;;;0.80;;
38111;SDS011;64011;56.312;44.048;2023-10-08T10:25:38;2.00;;;0.63;;
38111;SDS011;64011;56.312;44.048;2023-10-08T10:27:41;1.90;;;0.75;;
38111;SDS011;64011;56.312;44.048;2023-10-08T10:29:42;1.50;;;0.80;;
38111;SDS011;64011;56.312;44.048;2023-10-08T10:31:44;2.78;;;0.90;;
38111;SDS011;64011;56.312;44.048;2023-10-08T10:33:47;6.55;;;2.00;;
38111;SDS011;64011;56.312;44.048;2023-10-08T10:35:51;5.38;;;1.80;;
38111;SDS011;64011;56.312;44.048;2023-10-08T10:37:52;3.08;;;1.17;;
38111;SDS011;64011;56.312;44.048;2023-10-08T10:39:54;3.30;;;1.02;;
38111;SDS011;64011;56.312;44.048;2023-10-08T10:41:56;1.98;;;0.80;;
38111;SDS011;64011;56.312;44.048;2023-10-08T10:43:58;3.17;;;1.02;;
38111;SDS011;64011;56.312;44.048;2023-10-08T10:45:59;3.83;;;1.20;;
38111;SDS011;64011;56.312;44.048;2023-10-08T10:48:00;6.95;;;1.83;;
38111;SDS011;64011;56.312;44.048;2023-10-08T10:50:04;3.17;;;0.90;;
38111;SDS011;64011;56.312;44.048;2023-10-08T10:52:05;1.88;;;0.80;;
38111;SDS011;64011;56.312;44.048;2023-10-08T10:54:06;2.50;;;0.60;;
38111;SDS011;64011;56.312;44.048;2023-10-08T10:56:07;3.72;;;0.90;;
38111;SDS011;64011;56.312;44.048;2023-10-08T10:58:08;1.52;;;0.70;;
38111;SDS011;64011;56.312;44.048;2023-10-08T11:00:09;2.85;;;0.73;;
38111;SDS011;64011;56.312;44.048;2023-10-08T11:02:11;2.40;;;0.88;;
38111;SDS011;64011;56.312;44.048;2023-10-08T11:04:12;2.28;;;0.90;;
38111;SDS011;64011;56.312;44.048;2023-10-08T11:06:14;3.50;;;1.17;;
38111;SDS011;64011;56.312;44.048;2023-10-08T11:08:16;4.13;;;1.23;;
38111;SDS011;64011;56.312;44.048;2023-10-08T11:10:17;2.80;;;1.08;;
38111;SDS011;64011;56.312;44.048;2023-10-08T11:12:19;3.97;;;0.93;;
38111;SDS011;64011;56.312;44.048;2023-10-08T11:14:20;3.13;;;0.82;;
38111;SDS011;64011;56.312;44.048;2023-10-08T11:16:22;2.95;;;0.90;;
38111;SDS011;64011;56.312;44.048;2023-10-08T11:18:24;1.88;;;0.65;;
38111;SDS011;64011;56.312;44.048;2023-10-08T11:20:26;4.35;;;0.93;;
38111;SDS011;64011;56.312;44.048;2023-10-08T11:22:41;3.30;;;0.85;;
38111;SDS011;64011;56.312;44.048;2023-10-08T11:24:42;2.00;;;0.70;;
38111;SDS011;64011;56.312;44.048;2023-10-08T11:26:44;3.70;;;1.00;;
38111;SDS011;64011;56.312;44.048;2023-10-08T11:28:45;6.80;;;1.38;;
38111;SDS011;64011;56.312;44.048;2023-10-08T11:30:47;3.72;;;1.00;;
38111;SDS011;64011;56.312;44.048;2023-10-08T11:32:48;9.18;;;2.60;;
38111;SDS011;64011;56.312;44.048;2023-10-08T11:34:49;3.70;;;1.30;;
38111;SDS011;64011;56.312;44.048;2023-10-08T11:36:52;5.32;;;1.40;;
38111;SDS011;64011;56.312;44.048;2023-10-08T11:38:54;7.28;;;2.17;;
38111;SDS011;64011;56.312;44.048;2023-10-08T11:40:55;4.10;;;1.30;;
38111;SDS011;64011;56.312;44.048;2023-10-08T11:42:57;3.72;;;1.60;;
38111;SDS011;64011;56.312;44.048;2023-10-08T11:44:58;3.97;;;1.40;;
38111;SDS011;64011;56.312;44.048;2023-10-08T11:46:59;2.88;;;0.93;;
38111;SDS011;64011;56.312;44.048;2023-10-08T11:49:00;1.92;;;0.77;;
38111;SDS011;64011;56.312;44.048;2023-10-08T11:51:01;3.13;;;0.88;;
38111;SDS011;64011;56.312;44.048;2023-10-08T11:53:02;1.58;;;0.75;;
38111;SDS011;64011;56.312;44.048;2023-10-08T11:55:05;1.85;;;0.70;;
38111;SDS011;64011;56.312;44.048;2023-10-08T11:57:06;5.25;;;1.58;;
38111;SDS011;64011;56.312;44.048;2023-10-08T11:59:07;3.92;;;1.73;;
38111;SDS011;64011;56.312;44.048;2023-10-08T12:01:08;2.70;;;0.95;;